OCN317 GCRR-EDDM
Flight info
| Callsign | OCN317 |
|---|---|
| Flight time | 3h 54m |
| Altitude | 34000 |
| Route | KORAL UG5 SONSO DCT ADUBI N871 VJF N10 HIJ DCT CRISA DCT INPAN DCT VTB DCT PALIO DCT SEGRE DCT YAKXU DCT RONNY DCT TOPTU DCT TOU DCT GAI DCT MEN DCT NINUN DCT LATAM DCT ETREK DCT LTP DCT SOPLO DCT OMASI DCT KINNI DCT LAMUR DCT KORED DCT NUNRI T103 BETOS BETOS1B |
| Aircraft | A320/M-SDE3FGHIRWY/LB1 |
Departure
| Time | 2026-05-05 03:25 |
|---|---|
| Airport | César Manrique-Lanzarote Airport (GCRR) |
Arrival
| Time | 2026-05-05 07:20 |
|---|---|
| Airport | Munich Airport (EDDM) |
| Time | Latitude | Longitude | Altitude | Speed | Heading |
|---|---|---|---|---|---|
| 2026-05-05 03:13 | 28.95348 | -13.60513 | 85 ft | 0 kts | 297° |
| 2026-05-05 03:17 | 28.95348 | -13.60512 | 85 ft | 1 kts | 297° |
| 2026-05-05 03:17 | 28.95341 | -13.60497 | 84 ft | 2 kts | 297° |
| 2026-05-05 03:17 | 28.95334 | -13.60482 | 83 ft | 2 kts | 297° |
| 2026-05-05 03:18 | 28.95328 | -13.60468 | 82 ft | 0 kts | 297° |
| 2026-05-05 03:18 | 28.95323 | -13.60457 | 82 ft | 2 kts | 277° |
| 2026-05-05 03:18 | 28.95324 | -13.60440 | 81 ft | 2 kts | 250° |
| 2026-05-05 03:18 | 28.95332 | -13.60425 | 80 ft | 2 kts | 222° |
| 2026-05-05 03:19 | 28.95344 | -13.60416 | 80 ft | 0 kts | 206° |
| 2026-05-05 03:21 | 28.95332 | -13.60423 | 80 ft | 4 kts | 207° |
| 2026-05-05 03:21 | 28.95288 | -13.60449 | 80 ft | 9 kts | 207° |
| 2026-05-05 03:21 | 28.95214 | -13.60493 | 79 ft | 14 kts | 207° |
| 2026-05-05 03:21 | 28.95138 | -13.60501 | 77 ft | 12 kts | 128° |
| 2026-05-05 03:22 | 28.95062 | -13.60430 | 70 ft | 17 kts | 197° |
| 2026-05-05 03:22 | 28.94946 | -13.60496 | 68 ft | 20 kts | 207° |
| 2026-05-05 03:22 | 28.94808 | -13.60577 | 64 ft | 24 kts | 207° |
| 2026-05-05 03:22 | 28.94649 | -13.60670 | 61 ft | 27 kts | 207° |
| 2026-05-05 03:23 | 28.94472 | -13.60772 | 55 ft | 29 kts | 206° |
| 2026-05-05 03:23 | 28.94290 | -13.60877 | 52 ft | 29 kts | 207° |
| 2026-05-05 03:23 | 28.94110 | -13.60982 | 48 ft | 28 kts | 207° |
| 2026-05-05 03:23 | 28.93933 | -13.61084 | 47 ft | 28 kts | 206° |
| 2026-05-05 03:24 | 28.93764 | -13.61182 | 48 ft | 26 kts | 207° |
| 2026-05-05 03:24 | 28.93667 | -13.61219 | 47 ft | 12 kts | 160° |
| 2026-05-05 03:24 | 28.93614 | -13.61122 | 41 ft | 13 kts | 113° |
| 2026-05-05 03:24 | 28.93617 | -13.61061 | 38 ft | 8 kts | 33° |
| 2026-05-05 03:25 | 28.93702 | -13.61012 | 38 ft | 34 kts | 27° |
| 2026-05-05 03:25 | 28.94157 | -13.60748 | 39 ft | 108 kts | 27° |
| 2026-05-05 03:25 | 28.95021 | -13.60247 | 67 ft | 166 kts | 28° |
| 2026-05-05 03:25 | 28.96048 | -13.59612 | 719 ft | 168 kts | 32° |
| 2026-05-05 03:26 | 28.96975 | -13.58860 | 1552 ft | 165 kts | 39° |
| 2026-05-05 03:26 | 28.97841 | -13.58058 | 2256 ft | 163 kts | 39° |
| 2026-05-05 03:26 | 28.98766 | -13.57222 | 2663 ft | 177 kts | 38° |
| 2026-05-05 03:26 | 28.99795 | -13.56352 | 3068 ft | 192 kts | 36° |
| 2026-05-05 03:27 | 29.00911 | -13.55405 | 3445 ft | 209 kts | 43° |
| 2026-05-05 03:27 | 29.01642 | -13.53912 | 3757 ft | 232 kts | 80° |
| 2026-05-05 03:27 | 29.01685 | -13.51989 | 4156 ft | 253 kts | 86° |
| 2026-05-05 03:27 | 29.02091 | -13.50002 | 4668 ft | 265 kts | 60° |
| 2026-05-05 03:28 | 29.03294 | -13.48411 | 5341 ft | 270 kts | 32° |
| 2026-05-05 03:28 | 29.04941 | -13.47380 | 6099 ft | 274 kts | 25° |
| 2026-05-05 03:28 | 29.06601 | -13.46274 | 6854 ft | 281 kts | 31° |
| 2026-05-05 03:28 | 29.08163 | -13.44896 | 7601 ft | 289 kts | 38° |
| 2026-05-05 03:29 | 29.09641 | -13.43304 | 8325 ft | 297 kts | 42° |
| 2026-05-05 03:29 | 29.11099 | -13.41608 | 9052 ft | 304 kts | 43° |
| 2026-05-05 03:29 | 29.12589 | -13.39868 | 9768 ft | 310 kts | 42° |
| 2026-05-05 03:29 | 29.14133 | -13.38122 | 10446 ft | 318 kts | 41° |
| 2026-05-05 03:30 | 29.15772 | -13.36306 | 10810 ft | 337 kts | 41° |
| 2026-05-05 03:30 | 29.17472 | -13.34409 | 11389 ft | 347 kts | 41° |
| 2026-05-05 03:30 | 29.19202 | -13.32465 | 11895 ft | 351 kts | 41° |
| 2026-05-05 03:30 | 29.20945 | -13.30494 | 12052 ft | 353 kts | 41° |
| 2026-05-05 03:31 | 29.22687 | -13.28515 | 12050 ft | 353 kts | 42° |
| 2026-05-05 03:31 | 29.24427 | -13.26534 | 12065 ft | 352 kts | 41° |
| 2026-05-05 03:31 | 29.26168 | -13.24561 | 12050 ft | 351 kts | 41° |
| 2026-05-05 03:31 | 29.27915 | -13.22597 | 12050 ft | 352 kts | 41° |
| 2026-05-05 03:32 | 29.29669 | -13.20632 | 12045 ft | 352 kts | 41° |
| 2026-05-05 03:32 | 29.31419 | -13.18666 | 12033 ft | 352 kts | 41° |
| 2026-05-05 03:32 | 29.33166 | -13.16698 | 12031 ft | 352 kts | 41° |
| 2026-05-05 03:32 | 29.34906 | -13.14730 | 12028 ft | 352 kts | 41° |
| 2026-05-05 03:33 | 29.36648 | -13.12754 | 12027 ft | 353 kts | 41° |
| 2026-05-05 03:33 | 29.38389 | -13.10778 | 12026 ft | 352 kts | 41° |
| 2026-05-05 03:33 | 29.40127 | -13.08804 | 12026 ft | 352 kts | 41° |
| 2026-05-05 03:33 | 29.41861 | -13.06831 | 12026 ft | 351 kts | 41° |
| 2026-05-05 03:34 | 29.43597 | -13.04860 | 12027 ft | 351 kts | 41° |
| 2026-05-05 03:34 | 29.45331 | -13.02885 | 12025 ft | 352 kts | 42° |
| 2026-05-05 03:34 | 29.46983 | -13.00810 | 12025 ft | 353 kts | 47° |
| 2026-05-05 03:34 | 29.48494 | -12.98558 | 12195 ft | 360 kts | 52° |
| 2026-05-05 03:35 | 29.49943 | -12.96197 | 12879 ft | 364 kts | 52° |
| 2026-05-05 03:35 | 29.51384 | -12.93812 | 13612 ft | 367 kts | 52° |
| 2026-05-05 03:35 | 29.52841 | -12.91401 | 14260 ft | 371 kts | 52° |
| 2026-05-05 03:35 | 29.54319 | -12.88961 | 14883 ft | 376 kts | 52° |
| 2026-05-05 03:36 | 29.55816 | -12.86496 | 15516 ft | 379 kts | 52° |
| 2026-05-05 03:36 | 29.57327 | -12.84004 | 16128 ft | 383 kts | 52° |
| 2026-05-05 03:36 | 29.58856 | -12.81487 | 16728 ft | 387 kts | 52° |
| 2026-05-05 03:36 | 29.60400 | -12.78945 | 17313 ft | 391 kts | 53° |
| 2026-05-05 03:37 | 29.61958 | -12.76374 | 17869 ft | 395 kts | 53° |
| 2026-05-05 03:37 | 29.63534 | -12.73774 | 18412 ft | 400 kts | 52° |
| 2026-05-05 03:37 | 29.65125 | -12.71146 | 18951 ft | 404 kts | 52° |
| 2026-05-05 03:37 | 29.66732 | -12.68491 | 19476 ft | 408 kts | 52° |
| 2026-05-05 03:38 | 29.68357 | -12.65805 | 19973 ft | 412 kts | 52° |
| 2026-05-05 03:38 | 29.69999 | -12.63087 | 20476 ft | 416 kts | 52° |
| 2026-05-05 03:38 | 29.71656 | -12.60347 | 20992 ft | 420 kts | 52° |
| 2026-05-05 03:38 | 29.73323 | -12.57583 | 21490 ft | 424 kts | 52° |
| 2026-05-05 03:39 | 29.74996 | -12.54780 | 21960 ft | 428 kts | 53° |
| 2026-05-05 03:39 | 29.76678 | -12.51942 | 22419 ft | 433 kts | 53° |
| 2026-05-05 03:39 | 29.78373 | -12.49077 | 22892 ft | 436 kts | 53° |
| 2026-05-05 03:39 | 29.80083 | -12.46181 | 23343 ft | 440 kts | 53° |
| 2026-05-05 03:40 | 29.81809 | -12.43258 | 23806 ft | 443 kts | 53° |
| 2026-05-05 03:40 | 29.83544 | -12.40318 | 24293 ft | 446 kts | 52° |
| 2026-05-05 03:40 | 29.85286 | -12.37362 | 24733 ft | 449 kts | 52° |
| 2026-05-05 03:40 | 29.87046 | -12.34376 | 25167 ft | 453 kts | 53° |
| 2026-05-05 03:41 | 29.88817 | -12.31374 | 25583 ft | 456 kts | 53° |
| 2026-05-05 03:41 | 29.90596 | -12.28350 | 26005 ft | 458 kts | 52° |
| 2026-05-05 03:41 | 29.92383 | -12.25309 | 26427 ft | 461 kts | 53° |
| 2026-05-05 03:41 | 29.94183 | -12.22247 | 26795 ft | 464 kts | 52° |
| 2026-05-05 03:42 | 29.95992 | -12.19164 | 27178 ft | 467 kts | 53° |
| 2026-05-05 03:42 | 29.97814 | -12.16061 | 27546 ft | 470 kts | 53° |
| 2026-05-05 03:42 | 29.99662 | -12.12957 | 27934 ft | 471 kts | 49° |
| 2026-05-05 03:42 | 30.01742 | -12.10064 | 28317 ft | 469 kts | 41° |
| 2026-05-05 03:43 | 30.04098 | -12.07498 | 28669 ft | 466 kts | 34° |
| 2026-05-05 03:43 | 30.06616 | -12.05157 | 29026 ft | 466 kts | 32° |
| 2026-05-05 03:43 | 30.09180 | -12.02862 | 29349 ft | 469 kts | 31° |
| 2026-05-05 03:43 | 30.11763 | -12.00555 | 29656 ft | 472 kts | 31° |
| 2026-05-05 03:44 | 30.14362 | -11.98220 | 29992 ft | 474 kts | 32° |
| 2026-05-05 03:44 | 30.16956 | -11.95871 | 30333 ft | 475 kts | 32° |
| 2026-05-05 03:44 | 30.19557 | -11.93507 | 30659 ft | 477 kts | 32° |
| 2026-05-05 03:44 | 30.22168 | -11.91128 | 30940 ft | 480 kts | 32° |
| 2026-05-05 03:45 | 30.24790 | -11.88727 | 31220 ft | 483 kts | 32° |
| 2026-05-05 03:45 | 30.27421 | -11.86315 | 31526 ft | 484 kts | 32° |
| 2026-05-05 03:45 | 30.30063 | -11.83894 | 31801 ft | 486 kts | 33° |
| 2026-05-05 03:45 | 30.32717 | -11.81457 | 32049 ft | 489 kts | 32° |
| 2026-05-05 03:46 | 30.35382 | -11.79006 | 32317 ft | 491 kts | 32° |
| 2026-05-05 03:46 | 30.38059 | -11.76546 | 32572 ft | 493 kts | 33° |
| 2026-05-05 03:46 | 30.40746 | -11.74071 | 32834 ft | 495 kts | 32° |
| 2026-05-05 03:46 | 30.43444 | -11.71587 | 33078 ft | 496 kts | 33° |
| 2026-05-05 03:47 | 30.46150 | -11.69094 | 33331 ft | 498 kts | 33° |
| 2026-05-05 03:47 | 30.48864 | -11.66590 | 33549 ft | 500 kts | 32° |
| 2026-05-05 03:47 | 30.51590 | -11.64073 | 33763 ft | 502 kts | 32° |
| 2026-05-05 03:47 | 30.54323 | -11.61548 | 33978 ft | 503 kts | 32° |
| 2026-05-05 03:48 | 30.59805 | -11.56481 | 34016 ft | 504 kts | 32° |
| 2026-05-05 03:48 | 30.65275 | -11.51413 | 34019 ft | 503 kts | 32° |
| 2026-05-05 03:49 | 30.70735 | -11.46349 | 34015 ft | 503 kts | 32° |
| 2026-05-05 03:49 | 30.76196 | -11.41279 | 34010 ft | 504 kts | 32° |
| 2026-05-05 03:50 | 30.81652 | -11.36203 | 34009 ft | 503 kts | 32° |
| 2026-05-05 03:50 | 30.87123 | -11.31105 | 34010 ft | 501 kts | 33° |
| 2026-05-05 03:51 | 30.92559 | -11.26037 | 34015 ft | 502 kts | 33° |
| 2026-05-05 03:51 | 30.97996 | -11.20957 | 34008 ft | 502 kts | 33° |
| 2026-05-05 03:52 | 31.03439 | -11.15864 | 34008 ft | 502 kts | 33° |
| 2026-05-05 03:52 | 31.08879 | -11.10765 | 34000 ft | 502 kts | 33° |
| 2026-05-05 03:53 | 31.14309 | -11.05668 | 34003 ft | 500 kts | 33° |
| 2026-05-05 03:53 | 31.19731 | -11.00572 | 33995 ft | 500 kts | 33° |
| 2026-05-05 03:54 | 31.25134 | -10.95483 | 34004 ft | 498 kts | 33° |
| 2026-05-05 03:54 | 31.30517 | -10.90408 | 33999 ft | 498 kts | 33° |
| 2026-05-05 03:55 | 31.35893 | -10.85333 | 34007 ft | 496 kts | 33° |
| 2026-05-05 03:55 | 31.41257 | -10.80263 | 34008 ft | 496 kts | 33° |
| 2026-05-05 03:56 | 31.46614 | -10.75189 | 34009 ft | 496 kts | 33° |
| 2026-05-05 03:56 | 31.51969 | -10.70108 | 34009 ft | 496 kts | 33° |
| 2026-05-05 03:57 | 31.57321 | -10.65024 | 34007 ft | 496 kts | 33° |
| 2026-05-05 03:57 | 31.62672 | -10.59934 | 34011 ft | 496 kts | 33° |
| 2026-05-05 03:58 | 31.68012 | -10.54843 | 34009 ft | 495 kts | 33° |
| 2026-05-05 03:58 | 31.73348 | -10.49750 | 34007 ft | 494 kts | 33° |
| 2026-05-05 03:59 | 31.78687 | -10.44648 | 34005 ft | 495 kts | 33° |
| 2026-05-05 03:59 | 31.84029 | -10.39532 | 34004 ft | 495 kts | 33° |
| 2026-05-05 04:00 | 31.89366 | -10.34418 | 34012 ft | 493 kts | 34° |
| 2026-05-05 04:00 | 31.94681 | -10.29319 | 34022 ft | 494 kts | 34° |
| 2026-05-05 04:01 | 31.99994 | -10.24211 | 34016 ft | 494 kts | 34° |
| 2026-05-05 04:01 | 32.05318 | -10.19085 | 34026 ft | 495 kts | 34° |
| 2026-05-05 04:02 | 32.10633 | -10.13958 | 34022 ft | 494 kts | 34° |
| 2026-05-05 04:02 | 32.15945 | -10.08826 | 34032 ft | 493 kts | 34° |
| 2026-05-05 04:03 | 32.21248 | -10.03692 | 34023 ft | 493 kts | 34° |
| 2026-05-05 04:03 | 32.26517 | -9.98584 | 34029 ft | 492 kts | 34° |
| 2026-05-05 04:04 | 32.31792 | -9.93464 | 34032 ft | 491 kts | 35° |
| 2026-05-05 04:04 | 32.37055 | -9.88350 | 34029 ft | 490 kts | 35° |
| 2026-05-05 04:05 | 32.42312 | -9.83229 | 34038 ft | 490 kts | 36° |
| 2026-05-05 04:05 | 32.47565 | -9.78106 | 34028 ft | 490 kts | 35° |
| 2026-05-05 04:06 | 32.52806 | -9.72984 | 34034 ft | 489 kts | 36° |
| 2026-05-05 04:06 | 32.58036 | -9.67866 | 34050 ft | 488 kts | 36° |
| 2026-05-05 04:07 | 32.63253 | -9.62755 | 34044 ft | 487 kts | 36° |
| 2026-05-05 04:07 | 32.68471 | -9.57635 | 34049 ft | 487 kts | 36° |
| 2026-05-05 04:08 | 32.73709 | -9.52484 | 34042 ft | 486 kts | 36° |
| 2026-05-05 04:08 | 32.78908 | -9.47365 | 34048 ft | 486 kts | 36° |
| 2026-05-05 04:09 | 32.84094 | -9.42254 | 34049 ft | 485 kts | 36° |
| 2026-05-05 04:09 | 32.89270 | -9.37142 | 34048 ft | 484 kts | 36° |
| 2026-05-05 04:10 | 32.94438 | -9.32030 | 34051 ft | 483 kts | 37° |
| 2026-05-05 04:10 | 32.99590 | -9.26924 | 34046 ft | 482 kts | 37° |
| 2026-05-05 04:11 | 33.04736 | -9.21819 | 34051 ft | 481 kts | 37° |
| 2026-05-05 04:11 | 33.09862 | -9.16724 | 34052 ft | 480 kts | 37° |
| 2026-05-05 04:12 | 33.14983 | -9.11628 | 34047 ft | 481 kts | 37° |
| 2026-05-05 04:12 | 33.20111 | -9.06514 | 34049 ft | 481 kts | 37° |
| 2026-05-05 04:13 | 33.25232 | -9.01401 | 34050 ft | 481 kts | 37° |
| 2026-05-05 04:13 | 33.30351 | -8.96282 | 34043 ft | 481 kts | 37° |
| 2026-05-05 04:14 | 33.35465 | -8.91157 | 34049 ft | 480 kts | 37° |
| 2026-05-05 04:14 | 33.40569 | -8.86035 | 34053 ft | 480 kts | 37° |
| 2026-05-05 04:15 | 33.45670 | -8.80909 | 34051 ft | 479 kts | 37° |
| 2026-05-05 04:15 | 33.50767 | -8.75779 | 34051 ft | 478 kts | 37° |
| 2026-05-05 04:16 | 33.55855 | -8.70649 | 34054 ft | 478 kts | 37° |
| 2026-05-05 04:16 | 33.60946 | -8.65508 | 34054 ft | 479 kts | 37° |
| 2026-05-05 04:17 | 33.66038 | -8.60357 | 34059 ft | 480 kts | 37° |
| 2026-05-05 04:17 | 33.71087 | -8.55241 | 34060 ft | 479 kts | 37° |
| 2026-05-05 04:18 | 33.76198 | -8.50057 | 34060 ft | 478 kts | 37° |
| 2026-05-05 04:18 | 33.81230 | -8.44943 | 34062 ft | 478 kts | 37° |
| 2026-05-05 04:19 | 33.86288 | -8.39794 | 34064 ft | 477 kts | 37° |
| 2026-05-05 04:19 | 33.91344 | -8.34640 | 34060 ft | 477 kts | 38° |
| 2026-05-05 04:20 | 33.96434 | -8.29441 | 34061 ft | 477 kts | 38° |
| 2026-05-05 04:20 | 34.01485 | -8.24279 | 34062 ft | 477 kts | 38° |
| 2026-05-05 04:21 | 34.06536 | -8.19104 | 34068 ft | 477 kts | 38° |
| 2026-05-05 04:21 | 34.11583 | -8.13924 | 34067 ft | 477 kts | 38° |
| 2026-05-05 04:22 | 34.16625 | -8.08743 | 34065 ft | 476 kts | 38° |
| 2026-05-05 04:22 | 34.21618 | -8.03601 | 34066 ft | 476 kts | 38° |
| 2026-05-05 04:23 | 34.26652 | -7.98412 | 34062 ft | 476 kts | 38° |
| 2026-05-05 04:23 | 34.31721 | -7.93174 | 34065 ft | 478 kts | 38° |
| 2026-05-05 04:24 | 34.36758 | -7.87962 | 34059 ft | 477 kts | 38° |
| 2026-05-05 04:25 | 34.44263 | -7.80185 | 34059 ft | 476 kts | 38° |
| 2026-05-05 04:25 | 34.49287 | -7.74969 | 34056 ft | 476 kts | 38° |
| 2026-05-05 04:26 | 34.54301 | -7.69751 | 34056 ft | 477 kts | 38° |
| 2026-05-05 04:26 | 34.59316 | -7.64527 | 34055 ft | 476 kts | 38° |
| 2026-05-05 04:27 | 34.64326 | -7.59298 | 34054 ft | 476 kts | 38° |
| 2026-05-05 04:27 | 34.69335 | -7.54060 | 34052 ft | 477 kts | 38° |
| 2026-05-05 04:28 | 34.74348 | -7.48811 | 34054 ft | 476 kts | 38° |
| 2026-05-05 04:28 | 34.79362 | -7.43549 | 34054 ft | 477 kts | 38° |
| 2026-05-05 04:29 | 34.84379 | -7.38278 | 34057 ft | 476 kts | 38° |
| 2026-05-05 04:29 | 34.89381 | -7.33012 | 34049 ft | 476 kts | 39° |
| 2026-05-05 04:30 | 34.94381 | -7.27741 | 34053 ft | 477 kts | 39° |
| 2026-05-05 04:30 | 34.99376 | -7.22464 | 34050 ft | 476 kts | 39° |
| 2026-05-05 04:31 | 35.04374 | -7.17177 | 34046 ft | 476 kts | 39° |
| 2026-05-05 04:31 | 35.09369 | -7.11884 | 34043 ft | 477 kts | 39° |
| 2026-05-05 04:32 | 35.14375 | -7.06572 | 34041 ft | 478 kts | 39° |
| 2026-05-05 04:32 | 35.19385 | -7.01244 | 34037 ft | 479 kts | 39° |
| 2026-05-05 04:33 | 35.24400 | -6.95901 | 34037 ft | 479 kts | 39° |
| 2026-05-05 04:33 | 35.29407 | -6.90559 | 34037 ft | 478 kts | 39° |
| 2026-05-05 04:34 | 35.34400 | -6.85222 | 34039 ft | 477 kts | 38° |
| 2026-05-05 04:34 | 35.39397 | -6.79873 | 34039 ft | 479 kts | 38° |
| 2026-05-05 04:35 | 35.44396 | -6.74511 | 34038 ft | 479 kts | 38° |
| 2026-05-05 04:35 | 35.49400 | -6.69135 | 34037 ft | 480 kts | 38° |
| 2026-05-05 04:36 | 35.54411 | -6.63742 | 34037 ft | 480 kts | 38° |
| 2026-05-05 04:36 | 35.59425 | -6.58338 | 34036 ft | 481 kts | 38° |
| 2026-05-05 04:37 | 35.64438 | -6.52921 | 34034 ft | 481 kts | 38° |
| 2026-05-05 04:37 | 35.69451 | -6.47495 | 34034 ft | 481 kts | 38° |
| 2026-05-05 04:38 | 35.74459 | -6.42064 | 34033 ft | 481 kts | 38° |
| 2026-05-05 04:38 | 35.79470 | -6.36620 | 34029 ft | 481 kts | 38° |
| 2026-05-05 04:39 | 35.84608 | -6.31362 | 34028 ft | 480 kts | 33° |
| 2026-05-05 04:39 | 35.90050 | -6.26645 | 34028 ft | 479 kts | 31° |
| 2026-05-05 04:40 | 35.95533 | -6.21990 | 34027 ft | 479 kts | 31° |
| 2026-05-05 04:40 | 36.01009 | -6.17311 | 34023 ft | 479 kts | 31° |
| 2026-05-05 04:41 | 36.06464 | -6.12629 | 34022 ft | 479 kts | 31° |
| 2026-05-05 04:41 | 36.11933 | -6.07922 | 34021 ft | 479 kts | 31° |
| 2026-05-05 04:42 | 36.17408 | -6.03263 | 34018 ft | 477 kts | 28° |
| 2026-05-05 04:42 | 36.23236 | -5.99427 | 34020 ft | 473 kts | 18° |
| 2026-05-05 04:43 | 36.29412 | -5.96820 | 34016 ft | 467 kts | 8° |
| 2026-05-05 04:43 | 36.35741 | -5.95392 | 34018 ft | 461 kts | 2° |
| 2026-05-05 04:44 | 36.42094 | -5.94304 | 34017 ft | 462 kts | 1° |
| 2026-05-05 04:44 | 36.48443 | -5.93205 | 34017 ft | 460 kts | 1° |
| 2026-05-05 04:45 | 36.54778 | -5.92089 | 34018 ft | 461 kts | 1° |
| 2026-05-05 04:45 | 36.61109 | -5.90961 | 34019 ft | 460 kts | 1° |
| 2026-05-05 04:46 | 36.67432 | -5.89832 | 34018 ft | 459 kts | 1° |
| 2026-05-05 04:46 | 36.73757 | -5.88702 | 34019 ft | 459 kts | 1° |
| 2026-05-05 04:47 | 36.80076 | -5.87573 | 34020 ft | 460 kts | 1° |
| 2026-05-05 04:47 | 36.86395 | -5.86439 | 34019 ft | 459 kts | 1° |
| 2026-05-05 04:48 | 36.92710 | -5.85304 | 34019 ft | 459 kts | 1° |
| 2026-05-05 04:48 | 36.99021 | -5.84167 | 34018 ft | 458 kts | 0° |
| 2026-05-05 04:49 | 37.05338 | -5.83029 | 34020 ft | 458 kts | 0° |
| 2026-05-05 04:49 | 37.11663 | -5.81886 | 34020 ft | 458 kts | 0° |
| 2026-05-05 04:50 | 37.17966 | -5.80745 | 34024 ft | 458 kts | 360° |
| 2026-05-05 04:50 | 37.24280 | -5.79603 | 34023 ft | 459 kts | 0° |
| 2026-05-05 04:51 | 37.30594 | -5.78453 | 34025 ft | 459 kts | 360° |
| 2026-05-05 04:51 | 37.36917 | -5.77231 | 34026 ft | 462 kts | 2° |
| 2026-05-05 04:52 | 37.43195 | -5.75260 | 34026 ft | 470 kts | 9° |
| 2026-05-05 04:52 | 37.49353 | -5.72310 | 34030 ft | 479 kts | 17° |
| 2026-05-05 04:53 | 37.55374 | -5.68695 | 34029 ft | 481 kts | 18° |
| 2026-05-05 04:53 | 37.61394 | -5.65009 | 34025 ft | 482 kts | 18° |
| 2026-05-05 04:54 | 37.67419 | -5.61332 | 34023 ft | 482 kts | 18° |
| 2026-05-05 04:54 | 37.73461 | -5.57651 | 34021 ft | 482 kts | 18° |
| 2026-05-05 04:55 | 37.79502 | -5.53972 | 34016 ft | 483 kts | 18° |
| 2026-05-05 04:55 | 37.85545 | -5.50281 | 34018 ft | 483 kts | 18° |
| 2026-05-05 04:56 | 37.91597 | -5.46581 | 34015 ft | 484 kts | 17° |
| 2026-05-05 04:56 | 37.97652 | -5.42871 | 34015 ft | 483 kts | 17° |
| 2026-05-05 04:57 | 38.03708 | -5.39154 | 34013 ft | 485 kts | 17° |
| 2026-05-05 04:57 | 38.09764 | -5.35430 | 34015 ft | 485 kts | 17° |
| 2026-05-05 04:58 | 38.15822 | -5.31695 | 34015 ft | 484 kts | 18° |
| 2026-05-05 04:58 | 38.21872 | -5.27962 | 34013 ft | 484 kts | 18° |
| 2026-05-05 04:59 | 38.27909 | -5.24225 | 34017 ft | 483 kts | 18° |
| 2026-05-05 04:59 | 38.33955 | -5.20479 | 34018 ft | 484 kts | 18° |
| 2026-05-05 05:00 | 38.39998 | -5.16723 | 34012 ft | 484 kts | 18° |
| 2026-05-05 05:00 | 38.46005 | -5.12835 | 34015 ft | 489 kts | 22° |
| 2026-05-05 05:01 | 38.51738 | -5.08082 | 34014 ft | 497 kts | 30° |
| 2026-05-05 05:01 | 38.57021 | -5.02351 | 34014 ft | 502 kts | 38° |
| 2026-05-05 05:02 | 38.61995 | -4.96075 | 34017 ft | 503 kts | 39° |
| 2026-05-05 05:02 | 38.66942 | -4.89783 | 34017 ft | 503 kts | 39° |
| 2026-05-05 05:03 | 38.71902 | -4.83508 | 34015 ft | 503 kts | 39° |
| 2026-05-05 05:03 | 38.76871 | -4.77231 | 34006 ft | 503 kts | 39° |
| 2026-05-05 05:04 | 38.81847 | -4.70935 | 34004 ft | 505 kts | 39° |
| 2026-05-05 05:04 | 38.86822 | -4.64619 | 34003 ft | 505 kts | 39° |
| 2026-05-05 05:05 | 38.91806 | -4.58281 | 34000 ft | 506 kts | 39° |
| 2026-05-05 05:05 | 38.96790 | -4.51935 | 33993 ft | 506 kts | 39° |
| 2026-05-05 05:06 | 39.01769 | -4.45588 | 33987 ft | 505 kts | 39° |
| 2026-05-05 05:06 | 39.06741 | -4.39229 | 33982 ft | 505 kts | 39° |
| 2026-05-05 05:07 | 39.11720 | -4.32849 | 33973 ft | 506 kts | 40° |
| 2026-05-05 05:07 | 39.16694 | -4.26454 | 33973 ft | 507 kts | 39° |
| 2026-05-05 05:08 | 39.21669 | -4.20048 | 33968 ft | 507 kts | 39° |
| 2026-05-05 05:08 | 39.26644 | -4.13622 | 33967 ft | 508 kts | 39° |
| 2026-05-05 05:09 | 39.31619 | -4.07187 | 33968 ft | 508 kts | 40° |
| 2026-05-05 05:09 | 39.36594 | -4.00739 | 33968 ft | 508 kts | 39° |
| 2026-05-05 05:10 | 39.41568 | -3.94272 | 33971 ft | 508 kts | 40° |
| 2026-05-05 05:10 | 39.46530 | -3.87809 | 33969 ft | 507 kts | 39° |
| 2026-05-05 05:11 | 39.51484 | -3.81341 | 33968 ft | 507 kts | 39° |
| 2026-05-05 05:11 | 39.56435 | -3.74865 | 33966 ft | 506 kts | 39° |
| 2026-05-05 05:12 | 39.61386 | -3.68389 | 33963 ft | 506 kts | 39° |
| 2026-05-05 05:12 | 39.66332 | -3.61904 | 33963 ft | 508 kts | 40° |
| 2026-05-05 05:13 | 39.71276 | -3.55393 | 33965 ft | 507 kts | 40° |
| 2026-05-05 05:13 | 39.76262 | -3.48966 | 33963 ft | 504 kts | 37° |
| 2026-05-05 05:14 | 39.81671 | -3.43298 | 33961 ft | 497 kts | 28° |
| 2026-05-05 05:14 | 39.87410 | -3.38337 | 33963 ft | 496 kts | 26° |
| 2026-05-05 05:15 | 39.93148 | -3.33469 | 33955 ft | 496 kts | 27° |
| 2026-05-05 05:15 | 39.98905 | -3.28532 | 33958 ft | 497 kts | 27° |
| 2026-05-05 05:16 | 40.04656 | -3.23571 | 33948 ft | 497 kts | 27° |
| 2026-05-05 05:16 | 40.10412 | -3.18591 | 33937 ft | 497 kts | 27° |
| 2026-05-05 05:17 | 40.16160 | -3.13604 | 33955 ft | 497 kts | 27° |
| 2026-05-05 05:17 | 40.21914 | -3.08605 | 33932 ft | 498 kts | 28° |
| 2026-05-05 05:18 | 40.27669 | -3.03593 | 33955 ft | 498 kts | 27° |
| 2026-05-05 05:18 | 40.33430 | -2.98578 | 33936 ft | 498 kts | 28° |
| 2026-05-05 05:19 | 40.39188 | -2.93547 | 33958 ft | 499 kts | 27° |
| 2026-05-05 05:19 | 40.44936 | -2.88508 | 33948 ft | 498 kts | 27° |
| 2026-05-05 05:20 | 40.50696 | -2.83452 | 33946 ft | 499 kts | 27° |
| 2026-05-05 05:20 | 40.56455 | -2.78385 | 33953 ft | 500 kts | 28° |
| 2026-05-05 05:21 | 40.62216 | -2.73301 | 33967 ft | 500 kts | 28° |
| 2026-05-05 05:21 | 40.67984 | -2.68203 | 33953 ft | 501 kts | 28° |
| 2026-05-05 05:22 | 40.73765 | -2.63083 | 33951 ft | 502 kts | 28° |
| 2026-05-05 05:22 | 40.79549 | -2.57950 | 33939 ft | 503 kts | 28° |
| 2026-05-05 05:23 | 40.85337 | -2.52798 | 33944 ft | 503 kts | 28° |
| 2026-05-05 05:23 | 40.91125 | -2.47633 | 33936 ft | 503 kts | 28° |
| 2026-05-05 05:24 | 40.96922 | -2.42453 | 33940 ft | 505 kts | 28° |
| 2026-05-05 05:24 | 41.02708 | -2.37175 | 33943 ft | 507 kts | 31° |
| 2026-05-05 05:25 | 41.08263 | -2.31406 | 33944 ft | 509 kts | 34° |
| 2026-05-05 05:25 | 41.13776 | -2.25516 | 33940 ft | 509 kts | 34° |
| 2026-05-05 05:26 | 41.19269 | -2.19643 | 33952 ft | 507 kts | 34° |
| 2026-05-05 05:26 | 41.24747 | -2.13792 | 33954 ft | 506 kts | 34° |
| 2026-05-05 05:27 | 41.30213 | -2.07948 | 33974 ft | 505 kts | 34° |
| 2026-05-05 05:27 | 41.38418 | -1.99158 | 33952 ft | 506 kts | 34° |
| 2026-05-05 05:28 | 41.43869 | -1.93301 | 33956 ft | 505 kts | 34° |
| 2026-05-05 05:28 | 41.49319 | -1.87428 | 33942 ft | 505 kts | 35° |
| 2026-05-05 05:29 | 41.54764 | -1.81548 | 33941 ft | 505 kts | 35° |
| 2026-05-05 05:29 | 41.60201 | -1.75657 | 33951 ft | 504 kts | 34° |
| 2026-05-05 05:30 | 41.65627 | -1.69775 | 33940 ft | 503 kts | 34° |
| 2026-05-05 05:30 | 41.71045 | -1.63893 | 33937 ft | 503 kts | 35° |
| 2026-05-05 05:31 | 41.76452 | -1.57998 | 33941 ft | 502 kts | 35° |
| 2026-05-05 05:31 | 41.81847 | -1.52103 | 33954 ft | 502 kts | 34° |
| 2026-05-05 05:32 | 41.87242 | -1.46206 | 33940 ft | 502 kts | 35° |
| 2026-05-05 05:32 | 41.92629 | -1.40294 | 33958 ft | 502 kts | 34° |
| 2026-05-05 05:33 | 41.98026 | -1.34358 | 33953 ft | 502 kts | 36° |
| 2026-05-05 05:33 | 42.03427 | -1.28408 | 33941 ft | 501 kts | 36° |
| 2026-05-05 05:34 | 42.08791 | -1.22476 | 33957 ft | 500 kts | 36° |
| 2026-05-05 05:34 | 42.14142 | -1.16559 | 33938 ft | 501 kts | 36° |
| 2026-05-05 05:35 | 42.19505 | -1.10618 | 33931 ft | 501 kts | 36° |
| 2026-05-05 05:35 | 42.24859 | -1.04670 | 33934 ft | 499 kts | 36° |
| 2026-05-05 05:36 | 42.30200 | -0.98714 | 33932 ft | 499 kts | 37° |
| 2026-05-05 05:36 | 42.35528 | -0.92758 | 33933 ft | 498 kts | 36° |
| 2026-05-05 05:37 | 42.40788 | -0.86705 | 33937 ft | 499 kts | 40° |
| 2026-05-05 05:37 | 42.45552 | -0.79913 | 33940 ft | 500 kts | 49° |
| 2026-05-05 05:38 | 42.49815 | -0.72510 | 33939 ft | 500 kts | 51° |
| 2026-05-05 05:38 | 42.54005 | -0.65032 | 33939 ft | 500 kts | 51° |
| 2026-05-05 05:39 | 42.58210 | -0.57573 | 33932 ft | 499 kts | 51° |
| 2026-05-05 05:39 | 42.62417 | -0.50120 | 33928 ft | 499 kts | 51° |
| 2026-05-05 05:40 | 42.66616 | -0.42660 | 33931 ft | 499 kts | 51° |
| 2026-05-05 05:40 | 42.70808 | -0.35200 | 33923 ft | 497 kts | 51° |
| 2026-05-05 05:41 | 42.75000 | -0.27718 | 33925 ft | 497 kts | 52° |
| 2026-05-05 05:41 | 42.79168 | -0.20258 | 33928 ft | 496 kts | 51° |
| 2026-05-05 05:42 | 42.83487 | -0.12979 | 33928 ft | 496 kts | 49° |
| 2026-05-05 05:42 | 42.87858 | -0.05753 | 33927 ft | 495 kts | 50° |
| 2026-05-05 05:43 | 42.92211 | 0.01483 | 33928 ft | 494 kts | 50° |
| 2026-05-05 05:43 | 42.96553 | 0.08732 | 33936 ft | 494 kts | 50° |
| 2026-05-05 05:44 | 43.00887 | 0.15994 | 33939 ft | 494 kts | 50° |
| 2026-05-05 05:44 | 43.05212 | 0.23261 | 33948 ft | 494 kts | 50° |
| 2026-05-05 05:45 | 43.09531 | 0.30532 | 33952 ft | 494 kts | 50° |
| 2026-05-05 05:45 | 43.13840 | 0.37807 | 33951 ft | 492 kts | 50° |
| 2026-05-05 05:46 | 43.18136 | 0.45074 | 33956 ft | 492 kts | 50° |
| 2026-05-05 05:46 | 43.22421 | 0.52345 | 33955 ft | 492 kts | 50° |
| 2026-05-05 05:47 | 43.26699 | 0.59619 | 33957 ft | 491 kts | 50° |
| 2026-05-05 05:47 | 43.30970 | 0.66897 | 33953 ft | 491 kts | 51° |
| 2026-05-05 05:48 | 43.35229 | 0.74178 | 33956 ft | 490 kts | 51° |
| 2026-05-05 05:48 | 43.39477 | 0.81461 | 33953 ft | 490 kts | 51° |
| 2026-05-05 05:49 | 43.43720 | 0.88749 | 33950 ft | 490 kts | 51° |
| 2026-05-05 05:49 | 43.47957 | 0.96049 | 33951 ft | 489 kts | 51° |
| 2026-05-05 05:50 | 43.52193 | 1.03363 | 33939 ft | 489 kts | 51° |
| 2026-05-05 05:50 | 43.56417 | 1.10672 | 33935 ft | 489 kts | 51° |
| 2026-05-05 05:51 | 43.60628 | 1.17984 | 33946 ft | 487 kts | 51° |
| 2026-05-05 05:51 | 43.64791 | 1.25233 | 33949 ft | 487 kts | 51° |
| 2026-05-05 05:52 | 43.68967 | 1.32545 | 33944 ft | 486 kts | 53° |
| 2026-05-05 05:52 | 43.72978 | 1.40020 | 33950 ft | 486 kts | 54° |
| 2026-05-05 05:53 | 43.76951 | 1.47527 | 33944 ft | 485 kts | 54° |
| 2026-05-05 05:53 | 43.80939 | 1.55043 | 33940 ft | 484 kts | 54° |
| 2026-05-05 05:54 | 43.84917 | 1.62542 | 33932 ft | 485 kts | 54° |
| 2026-05-05 05:54 | 43.88892 | 1.70055 | 33930 ft | 484 kts | 54° |
| 2026-05-05 05:55 | 43.92847 | 1.77551 | 33928 ft | 483 kts | 54° |
| 2026-05-05 05:55 | 43.96773 | 1.85065 | 33924 ft | 482 kts | 56° |
| 2026-05-05 05:56 | 44.00583 | 1.92696 | 33919 ft | 481 kts | 56° |
| 2026-05-05 05:56 | 44.04367 | 2.00333 | 33924 ft | 480 kts | 56° |
| 2026-05-05 05:57 | 44.08142 | 2.07946 | 33926 ft | 480 kts | 56° |
| 2026-05-05 05:57 | 44.11924 | 2.15585 | 33938 ft | 481 kts | 57° |
| 2026-05-05 05:58 | 44.15699 | 2.23230 | 33914 ft | 481 kts | 57° |
| 2026-05-05 05:58 | 44.19475 | 2.30896 | 33932 ft | 482 kts | 57° |
| 2026-05-05 05:59 | 44.23217 | 2.38514 | 33927 ft | 481 kts | 57° |
| 2026-05-05 05:59 | 44.26978 | 2.46187 | 33925 ft | 481 kts | 57° |
| 2026-05-05 06:00 | 44.30729 | 2.53861 | 33931 ft | 479 kts | 57° |
| 2026-05-05 06:00 | 44.34462 | 2.61521 | 33929 ft | 479 kts | 57° |
| 2026-05-05 06:01 | 44.38191 | 2.69191 | 33941 ft | 478 kts | 58° |
| 2026-05-05 06:01 | 44.41905 | 2.76852 | 33931 ft | 477 kts | 58° |
| 2026-05-05 06:02 | 44.45606 | 2.84509 | 33925 ft | 477 kts | 58° |
| 2026-05-05 06:02 | 44.49308 | 2.92187 | 33915 ft | 478 kts | 58° |
| 2026-05-05 06:03 | 44.53007 | 2.99885 | 33918 ft | 479 kts | 58° |
| 2026-05-05 06:03 | 44.56707 | 3.07605 | 33919 ft | 478 kts | 58° |
| 2026-05-05 06:04 | 44.60378 | 3.15318 | 33910 ft | 476 kts | 60° |
| 2026-05-05 06:04 | 44.63709 | 3.23287 | 33901 ft | 475 kts | 63° |
| 2026-05-05 06:05 | 44.66923 | 3.31348 | 33902 ft | 475 kts | 63° |
| 2026-05-05 06:05 | 44.70141 | 3.39419 | 33899 ft | 475 kts | 63° |
| 2026-05-05 06:06 | 44.73352 | 3.47479 | 33893 ft | 474 kts | 63° |
| 2026-05-05 06:06 | 44.76555 | 3.55539 | 33895 ft | 474 kts | 63° |
| 2026-05-05 06:07 | 44.79754 | 3.63586 | 33887 ft | 472 kts | 63° |
| 2026-05-05 06:07 | 44.82941 | 3.71637 | 33886 ft | 471 kts | 64° |
| 2026-05-05 06:08 | 44.86109 | 3.79666 | 33880 ft | 470 kts | 64° |
| 2026-05-05 06:08 | 44.89267 | 3.87701 | 33881 ft | 471 kts | 64° |
| 2026-05-05 06:09 | 44.92421 | 3.95748 | 33878 ft | 471 kts | 64° |
| 2026-05-05 06:09 | 44.95575 | 4.03817 | 33896 ft | 471 kts | 64° |
| 2026-05-05 06:10 | 44.98714 | 4.11874 | 33890 ft | 470 kts | 64° |
| 2026-05-05 06:10 | 45.01850 | 4.19952 | 33886 ft | 469 kts | 64° |
| 2026-05-05 06:11 | 45.04971 | 4.28003 | 33891 ft | 468 kts | 64° |
| 2026-05-05 06:11 | 45.08086 | 4.36044 | 33898 ft | 467 kts | 64° |
| 2026-05-05 06:12 | 45.11186 | 4.44092 | 33876 ft | 467 kts | 64° |
| 2026-05-05 06:12 | 45.14279 | 4.52147 | 33905 ft | 467 kts | 65° |
| 2026-05-05 06:13 | 45.17361 | 4.60207 | 33890 ft | 468 kts | 64° |
| 2026-05-05 06:13 | 45.20447 | 4.68274 | 33894 ft | 467 kts | 65° |
| 2026-05-05 06:14 | 45.23521 | 4.76337 | 33880 ft | 467 kts | 65° |
| 2026-05-05 06:14 | 45.26586 | 4.84401 | 33895 ft | 466 kts | 65° |
| 2026-05-05 06:15 | 45.29640 | 4.92467 | 33878 ft | 466 kts | 66° |
| 2026-05-05 06:15 | 45.32690 | 5.00552 | 33896 ft | 465 kts | 66° |
| 2026-05-05 06:16 | 45.35730 | 5.08629 | 33882 ft | 465 kts | 66° |
| 2026-05-05 06:16 | 45.38760 | 5.16712 | 33878 ft | 465 kts | 66° |
| 2026-05-05 06:17 | 45.41782 | 5.24797 | 33889 ft | 464 kts | 66° |
| 2026-05-05 06:17 | 45.44803 | 5.32877 | 33888 ft | 465 kts | 65° |
| 2026-05-05 06:18 | 45.48236 | 5.40669 | 33890 ft | 467 kts | 58° |
| 2026-05-05 06:18 | 45.52319 | 5.47855 | 33898 ft | 469 kts | 50° |
| 2026-05-05 06:19 | 45.56988 | 5.54339 | 33884 ft | 470 kts | 45° |
| 2026-05-05 06:19 | 45.61839 | 5.60479 | 33892 ft | 470 kts | 44° |
| 2026-05-05 06:20 | 45.66730 | 5.66698 | 33898 ft | 471 kts | 45° |
| 2026-05-05 06:20 | 45.71585 | 5.72919 | 33894 ft | 469 kts | 46° |
| 2026-05-05 06:21 | 45.76434 | 5.79142 | 33890 ft | 469 kts | 46° |
| 2026-05-05 06:21 | 45.81285 | 5.85375 | 33897 ft | 469 kts | 46° |
| 2026-05-05 06:22 | 45.86096 | 5.91577 | 33892 ft | 468 kts | 46° |
| 2026-05-05 06:22 | 45.90935 | 5.97837 | 33903 ft | 466 kts | 46° |
| 2026-05-05 06:23 | 45.95734 | 6.04051 | 33898 ft | 466 kts | 46° |
| 2026-05-05 06:23 | 46.00551 | 6.10307 | 33901 ft | 465 kts | 46° |
| 2026-05-05 06:24 | 46.05310 | 6.16533 | 33908 ft | 464 kts | 48° |
| 2026-05-05 06:24 | 46.09732 | 6.23275 | 33906 ft | 462 kts | 54° |
| 2026-05-05 06:25 | 46.13573 | 6.30645 | 33906 ft | 459 kts | 59° |
| 2026-05-05 06:25 | 46.17207 | 6.38137 | 33907 ft | 460 kts | 60° |
| 2026-05-05 06:26 | 46.20869 | 6.45702 | 33922 ft | 460 kts | 60° |
| 2026-05-05 06:26 | 46.24532 | 6.53263 | 33925 ft | 460 kts | 60° |
| 2026-05-05 06:27 | 46.29998 | 6.64565 | 33930 ft | 460 kts | 59° |
| 2026-05-05 06:28 | 46.33651 | 6.72147 | 33926 ft | 461 kts | 60° |
| 2026-05-05 06:28 | 46.37310 | 6.79761 | 33929 ft | 462 kts | 60° |
| 2026-05-05 06:29 | 46.40949 | 6.87354 | 33933 ft | 462 kts | 60° |
| 2026-05-05 06:29 | 46.44605 | 6.95002 | 33934 ft | 462 kts | 60° |
| 2026-05-05 06:30 | 46.48240 | 7.02628 | 33937 ft | 462 kts | 60° |
| 2026-05-05 06:30 | 46.51881 | 7.10293 | 33938 ft | 462 kts | 60° |
| 2026-05-05 06:31 | 46.55833 | 7.17643 | 33945 ft | 468 kts | 51° |
| 2026-05-05 06:31 | 46.60696 | 7.23960 | 33937 ft | 473 kts | 39° |
| 2026-05-05 06:32 | 46.66336 | 7.28898 | 33937 ft | 476 kts | 28° |
| 2026-05-05 06:32 | 46.72345 | 7.32906 | 33937 ft | 476 kts | 26° |
| 2026-05-05 06:33 | 46.78331 | 7.36988 | 33914 ft | 475 kts | 32° |
| 2026-05-05 06:33 | 46.83593 | 7.42535 | 33918 ft | 469 kts | 46° |
| 2026-05-05 06:34 | 46.87764 | 7.49720 | 33904 ft | 461 kts | 61° |
| 2026-05-05 06:34 | 46.90797 | 7.57905 | 33891 ft | 459 kts | 68° |
| 2026-05-05 06:35 | 46.93594 | 7.66291 | 33893 ft | 460 kts | 69° |
| 2026-05-05 06:35 | 46.96410 | 7.74679 | 33887 ft | 460 kts | 69° |
| 2026-05-05 06:36 | 46.99236 | 7.83057 | 33891 ft | 461 kts | 69° |
| 2026-05-05 06:36 | 47.02069 | 7.91469 | 33889 ft | 461 kts | 68° |
| 2026-05-05 06:37 | 47.04899 | 7.99887 | 33887 ft | 462 kts | 68° |
| 2026-05-05 06:37 | 47.07706 | 8.08268 | 33888 ft | 462 kts | 68° |
| 2026-05-05 06:38 | 47.10545 | 8.16765 | 33888 ft | 463 kts | 68° |
| 2026-05-05 06:38 | 47.13359 | 8.25220 | 33890 ft | 462 kts | 68° |
| 2026-05-05 06:39 | 47.16168 | 8.33678 | 33888 ft | 463 kts | 68° |
| 2026-05-05 06:39 | 47.18973 | 8.42150 | 33886 ft | 463 kts | 68° |
| 2026-05-05 06:40 | 47.21771 | 8.50637 | 33888 ft | 462 kts | 68° |
| 2026-05-05 06:40 | 47.24541 | 8.59067 | 33889 ft | 463 kts | 68° |
| 2026-05-05 06:41 | 47.27352 | 8.67647 | 33884 ft | 463 kts | 68° |
| 2026-05-05 06:41 | 47.30128 | 8.76154 | 33884 ft | 463 kts | 68° |
| 2026-05-05 06:42 | 47.32885 | 8.84632 | 33882 ft | 464 kts | 68° |
| 2026-05-05 06:42 | 47.35653 | 8.93165 | 33882 ft | 463 kts | 68° |
| 2026-05-05 06:43 | 47.38417 | 9.01714 | 33894 ft | 463 kts | 68° |
| 2026-05-05 06:43 | 47.41168 | 9.10253 | 33897 ft | 463 kts | 68° |
| 2026-05-05 06:44 | 47.43919 | 9.18824 | 33895 ft | 464 kts | 68° |
| 2026-05-05 06:44 | 47.46666 | 9.27405 | 33878 ft | 464 kts | 68° |
| 2026-05-05 06:45 | 47.49406 | 9.36000 | 33874 ft | 465 kts | 68° |
| 2026-05-05 06:45 | 47.52142 | 9.44616 | 33871 ft | 465 kts | 67° |
| 2026-05-05 06:45 | 47.53496 | 9.48885 | 33867 ft | 452 kts | 67° |
| 2026-05-05 06:46 | 47.54803 | 9.53006 | 33871 ft | 436 kts | 68° |
| 2026-05-05 06:46 | 47.56061 | 9.56987 | 33872 ft | 421 kts | 68° |
| 2026-05-05 06:46 | 47.57274 | 9.60833 | 33870 ft | 408 kts | 68° |
| 2026-05-05 06:47 | 47.59462 | 9.68502 | 33852 ft | 400 kts | 84° |
| 2026-05-05 06:47 | 47.59470 | 9.72508 | 33862 ft | 387 kts | 108° |
| 2026-05-05 06:47 | 47.58470 | 9.76101 | 33876 ft | 375 kts | 129° |
| 2026-05-05 06:47 | 47.56750 | 9.78890 | 33877 ft | 365 kts | 148° |
| 2026-05-05 06:48 | 47.54565 | 9.80654 | 33873 ft | 356 kts | 166° |
| 2026-05-05 06:48 | 47.52160 | 9.81278 | 33878 ft | 351 kts | 183° |
| 2026-05-05 06:48 | 47.49775 | 9.80756 | 33879 ft | 348 kts | 200° |
| 2026-05-05 06:48 | 47.47632 | 9.79163 | 33886 ft | 347 kts | 217° |
| 2026-05-05 06:49 | 47.45934 | 9.76655 | 33885 ft | 349 kts | 233° |
| 2026-05-05 06:49 | 47.43781 | 9.70239 | 33744 ft | 351 kts | 252° |
| 2026-05-05 06:49 | 47.43632 | 9.66641 | 33229 ft | 361 kts | 275° |
| 2026-05-05 06:50 | 47.44416 | 9.63112 | 32727 ft | 369 kts | 294° |
| 2026-05-05 06:50 | 47.45957 | 9.60070 | 32253 ft | 377 kts | 313° |
| 2026-05-05 06:50 | 47.48099 | 9.57913 | 31915 ft | 383 kts | 333° |
| 2026-05-05 06:50 | 47.50685 | 9.56893 | 31638 ft | 390 kts | 354° |
| 2026-05-05 06:51 | 47.53379 | 9.57260 | 31364 ft | 393 kts | 17° |
| 2026-05-05 06:51 | 47.55814 | 9.59002 | 31091 ft | 390 kts | 39° |
| 2026-05-05 06:51 | 47.57658 | 9.61864 | 30818 ft | 384 kts | 61° |
| 2026-05-05 06:51 | 47.58877 | 9.65338 | 30558 ft | 381 kts | 69° |
| 2026-05-05 06:52 | 47.59866 | 9.69018 | 30298 ft | 395 kts | 75° |
| 2026-05-05 06:52 | 47.60627 | 9.73013 | 30026 ft | 414 kts | 81° |
| 2026-05-05 06:52 | 47.61111 | 9.77272 | 29751 ft | 424 kts | 87° |
| 2026-05-05 06:52 | 47.61268 | 9.81616 | 29476 ft | 423 kts | 94° |
| 2026-05-05 06:53 | 47.61089 | 9.85930 | 29198 ft | 419 kts | 101° |
| 2026-05-05 06:53 | 47.60581 | 9.90144 | 28924 ft | 416 kts | 107° |
| 2026-05-05 06:53 | 47.59757 | 9.94209 | 28648 ft | 412 kts | 114° |
| 2026-05-05 06:53 | 47.58725 | 9.98129 | 28373 ft | 410 kts | 115° |
| 2026-05-05 06:54 | 47.57804 | 10.02124 | 28096 ft | 410 kts | 109° |
| 2026-05-05 06:54 | 47.57160 | 10.06224 | 27822 ft | 411 kts | 103° |
| 2026-05-05 06:54 | 47.56823 | 10.10419 | 27552 ft | 412 kts | 98° |
| 2026-05-05 06:54 | 47.56615 | 10.14627 | 27279 ft | 410 kts | 97° |
| 2026-05-05 06:55 | 47.56435 | 10.18829 | 27007 ft | 409 kts | 96° |
| 2026-05-05 06:55 | 47.56259 | 10.23009 | 26733 ft | 407 kts | 96° |
| 2026-05-05 06:55 | 47.56078 | 10.27178 | 26460 ft | 406 kts | 96° |
| 2026-05-05 06:55 | 47.55895 | 10.31326 | 26189 ft | 405 kts | 96° |
| 2026-05-05 06:56 | 47.55712 | 10.35404 | 25921 ft | 403 kts | 96° |
| 2026-05-05 06:56 | 47.55525 | 10.39520 | 25655 ft | 402 kts | 96° |
| 2026-05-05 06:56 | 47.55336 | 10.43626 | 25390 ft | 400 kts | 96° |
| 2026-05-05 06:56 | 47.55145 | 10.47714 | 25125 ft | 399 kts | 96° |
| 2026-05-05 06:57 | 47.54990 | 10.51791 | 24855 ft | 399 kts | 91° |
| 2026-05-05 06:57 | 47.55349 | 10.55845 | 24580 ft | 401 kts | 76° |
| 2026-05-05 06:57 | 47.56383 | 10.59660 | 24310 ft | 402 kts | 62° |
| 2026-05-05 06:57 | 47.57790 | 10.63217 | 24049 ft | 401 kts | 59° |
| 2026-05-05 06:58 | 47.59249 | 10.66728 | 23737 ft | 399 kts | 59° |
| 2026-05-05 06:58 | 47.60693 | 10.70210 | 23355 ft | 397 kts | 60° |
| 2026-05-05 06:58 | 47.62112 | 10.73682 | 22946 ft | 394 kts | 60° |
| 2026-05-05 06:58 | 47.63510 | 10.77142 | 22524 ft | 391 kts | 60° |
| 2026-05-05 06:59 | 47.64890 | 10.80582 | 22095 ft | 388 kts | 60° |
| 2026-05-05 06:59 | 47.66255 | 10.83993 | 21724 ft | 385 kts | 60° |
| 2026-05-05 06:59 | 47.67670 | 10.87325 | 21284 ft | 382 kts | 54° |
| 2026-05-05 06:59 | 47.69381 | 10.90302 | 20851 ft | 379 kts | 45° |
| 2026-05-05 07:00 | 47.71344 | 10.92865 | 20442 ft | 376 kts | 39° |
| 2026-05-05 07:00 | 47.73374 | 10.95262 | 20047 ft | 373 kts | 38° |
| 2026-05-05 07:00 | 47.75402 | 10.97622 | 19630 ft | 370 kts | 38° |
| 2026-05-05 07:00 | 47.77412 | 10.99976 | 19184 ft | 368 kts | 39° |
| 2026-05-05 07:01 | 47.79413 | 11.02337 | 18768 ft | 365 kts | 39° |
| 2026-05-05 07:01 | 47.81382 | 11.04676 | 18355 ft | 362 kts | 39° |
| 2026-05-05 07:01 | 47.83333 | 11.07001 | 17941 ft | 359 kts | 39° |
| 2026-05-05 07:01 | 47.85270 | 11.09312 | 17516 ft | 357 kts | 39° |
| 2026-05-05 07:02 | 47.87194 | 11.11607 | 17154 ft | 354 kts | 39° |
| 2026-05-05 07:02 | 47.89109 | 11.13882 | 16704 ft | 352 kts | 39° |
| 2026-05-05 07:02 | 47.91013 | 11.16143 | 16300 ft | 350 kts | 39° |
| 2026-05-05 07:02 | 47.92902 | 11.18390 | 15917 ft | 347 kts | 39° |
| 2026-05-05 07:03 | 47.94779 | 11.20626 | 15526 ft | 346 kts | 39° |
| 2026-05-05 07:03 | 47.96649 | 11.22856 | 15096 ft | 345 kts | 39° |
| 2026-05-05 07:03 | 47.98510 | 11.25080 | 14687 ft | 343 kts | 39° |
| 2026-05-05 07:03 | 48.00340 | 11.27269 | 14280 ft | 341 kts | 40° |
| 2026-05-05 07:04 | 48.02181 | 11.29472 | 13866 ft | 339 kts | 40° |
| 2026-05-05 07:04 | 48.04010 | 11.31663 | 13467 ft | 337 kts | 40° |
| 2026-05-05 07:04 | 48.05826 | 11.33841 | 13062 ft | 335 kts | 40° |
| 2026-05-05 07:04 | 48.07626 | 11.36000 | 12757 ft | 328 kts | 40° |
| 2026-05-05 07:05 | 48.09401 | 11.38129 | 12770 ft | 328 kts | 40° |
| 2026-05-05 07:05 | 48.11186 | 11.40275 | 12795 ft | 328 kts | 40° |
| 2026-05-05 07:05 | 48.12965 | 11.42414 | 12802 ft | 329 kts | 40° |
| 2026-05-05 07:05 | 48.14746 | 11.44560 | 12819 ft | 329 kts | 40° |
| 2026-05-05 07:06 | 48.16530 | 11.46711 | 12833 ft | 330 kts | 40° |
| 2026-05-05 07:06 | 48.18313 | 11.48862 | 12836 ft | 330 kts | 40° |
| 2026-05-05 07:06 | 48.20100 | 11.51022 | 12837 ft | 330 kts | 40° |
| 2026-05-05 07:06 | 48.21881 | 11.53177 | 12840 ft | 329 kts | 41° |
| 2026-05-05 07:07 | 48.23408 | 11.55681 | 12824 ft | 326 kts | 61° |
| 2026-05-05 07:07 | 48.24162 | 11.58833 | 12836 ft | 322 kts | 83° |
| 2026-05-05 07:07 | 48.24426 | 11.62153 | 12841 ft | 321 kts | 85° |
| 2026-05-05 07:07 | 48.24660 | 11.65494 | 12840 ft | 321 kts | 86° |
| 2026-05-05 07:08 | 48.24897 | 11.68812 | 12840 ft | 321 kts | 86° |
| 2026-05-05 07:08 | 48.25141 | 11.72134 | 12843 ft | 321 kts | 86° |
| 2026-05-05 07:08 | 48.25389 | 11.75457 | 12843 ft | 322 kts | 86° |
| 2026-05-05 07:08 | 48.25641 | 11.78784 | 12843 ft | 322 kts | 86° |
| 2026-05-05 07:09 | 48.25893 | 11.82113 | 12844 ft | 322 kts | 86° |
| 2026-05-05 07:09 | 48.26146 | 11.85440 | 12846 ft | 322 kts | 86° |
| 2026-05-05 07:09 | 48.26400 | 11.88768 | 12845 ft | 322 kts | 86° |
| 2026-05-05 07:09 | 48.26649 | 11.92079 | 12746 ft | 318 kts | 86° |
| 2026-05-05 07:10 | 48.26896 | 11.95348 | 12313 ft | 316 kts | 86° |
| 2026-05-05 07:10 | 48.27141 | 11.98601 | 11964 ft | 311 kts | 86° |
| 2026-05-05 07:10 | 48.27377 | 12.01737 | 11781 ft | 301 kts | 86° |
| 2026-05-05 07:10 | 48.27605 | 12.04797 | 11602 ft | 291 kts | 86° |
| 2026-05-05 07:11 | 48.27827 | 12.07759 | 11429 ft | 282 kts | 86° |
| 2026-05-05 07:11 | 48.28091 | 12.10616 | 11248 ft | 274 kts | 77° |
| 2026-05-05 07:11 | 48.29024 | 12.13010 | 10983 ft | 268 kts | 42° |
| 2026-05-05 07:11 | 48.30626 | 12.14299 | 10763 ft | 260 kts | 15° |
| 2026-05-05 07:12 | 48.32383 | 12.14495 | 10536 ft | 250 kts | 352° |
| 2026-05-05 07:12 | 48.33992 | 12.13711 | 10303 ft | 241 kts | 329° |
| 2026-05-05 07:12 | 48.35226 | 12.12143 | 10205 ft | 224 kts | 308° |
| 2026-05-05 07:12 | 48.35968 | 12.10194 | 10016 ft | 206 kts | 289° |
| 2026-05-05 07:13 | 48.36315 | 12.08212 | 9759 ft | 189 kts | 274° |
| 2026-05-05 07:13 | 48.36363 | 12.06330 | 9494 ft | 174 kts | 262° |
| 2026-05-05 07:13 | 48.35957 | 12.04772 | 9180 ft | 156 kts | 220° |
| 2026-05-05 07:13 | 48.35012 | 12.04200 | 8722 ft | 150 kts | 173° |
| 2026-05-05 07:14 | 48.34118 | 12.04915 | 8193 ft | 154 kts | 126° |
| 2026-05-05 07:14 | 48.33898 | 12.06447 | 7720 ft | 158 kts | 79° |
| 2026-05-05 07:14 | 48.34530 | 12.07735 | 7334 ft | 158 kts | 30° |
| 2026-05-05 07:14 | 48.35588 | 12.07901 | 6960 ft | 158 kts | 341° |
| 2026-05-05 07:15 | 48.36377 | 12.06846 | 6559 ft | 156 kts | 292° |
| 2026-05-05 07:15 | 48.36487 | 12.05264 | 6178 ft | 153 kts | 265° |
| 2026-05-05 07:15 | 48.36360 | 12.03690 | 5813 ft | 152 kts | 261° |
| 2026-05-05 07:15 | 48.36205 | 12.02138 | 5453 ft | 150 kts | 261° |
| 2026-05-05 07:16 | 48.36058 | 12.00599 | 5092 ft | 149 kts | 262° |
| 2026-05-05 07:16 | 48.35923 | 11.99069 | 4728 ft | 148 kts | 263° |
| 2026-05-05 07:16 | 48.35799 | 11.97550 | 4372 ft | 147 kts | 264° |
| 2026-05-05 07:16 | 48.35680 | 11.96036 | 4016 ft | 145 kts | 264° |
| 2026-05-05 07:17 | 48.35564 | 11.94542 | 3661 ft | 144 kts | 265° |
| 2026-05-05 07:17 | 48.35449 | 11.93059 | 3309 ft | 143 kts | 266° |
| 2026-05-05 07:17 | 48.35336 | 11.91593 | 2960 ft | 142 kts | 265° |
| 2026-05-05 07:17 | 48.35225 | 11.90137 | 2736 ft | 141 kts | 264° |
| 2026-05-05 07:18 | 48.35112 | 11.88675 | 2555 ft | 141 kts | 264° |
| 2026-05-05 07:18 | 48.34999 | 11.87212 | 2364 ft | 141 kts | 265° |
| 2026-05-05 07:18 | 48.34888 | 11.85753 | 2187 ft | 141 kts | 264° |
| 2026-05-05 07:18 | 48.34775 | 11.84296 | 2010 ft | 140 kts | 264° |
| 2026-05-05 07:19 | 48.34658 | 11.82842 | 1815 ft | 140 kts | 264° |
| 2026-05-05 07:19 | 48.34555 | 11.81396 | 1630 ft | 138 kts | 262° |
| 2026-05-05 07:19 | 48.34440 | 11.79966 | 1475 ft | 134 kts | 263° |
| 2026-05-05 07:19 | 48.34346 | 11.78719 | 1479 ft | 106 kts | 264° |
| 2026-05-05 07:20 | 48.34269 | 11.77749 | 1480 ft | 85 kts | 264° |
| 2026-05-05 07:20 | 48.34210 | 11.76952 | 1483 ft | 69 kts | 264° |
| 2026-05-05 07:20 | 48.34192 | 11.76495 | 1485 ft | 28 kts | 281° |
| 2026-05-05 07:20 | 48.34255 | 11.76218 | 1482 ft | 27 kts | 294° |
| 2026-05-05 07:21 | 48.34321 | 11.75989 | 1485 ft | 15 kts | 293° |
| 2026-05-05 07:21 | 48.34395 | 11.75950 | 1481 ft | 15 kts | 49° |
| 2026-05-05 07:21 | 48.34418 | 11.76111 | 1482 ft | 17 kts | 84° |
| 2026-05-05 07:21 | 48.34431 | 11.76297 | 1482 ft | 18 kts | 83° |
| 2026-05-05 07:22 | 48.34448 | 11.76501 | 1482 ft | 20 kts | 83° |
| 2026-05-05 07:22 | 48.34465 | 11.76719 | 1482 ft | 21 kts | 83° |
| 2026-05-05 07:22 | 48.34483 | 11.76957 | 1478 ft | 24 kts | 83° |
| 2026-05-05 07:22 | 48.34504 | 11.77218 | 1475 ft | 26 kts | 83° |
| 2026-05-05 07:23 | 48.34525 | 11.77500 | 1473 ft | 27 kts | 84° |
| 2026-05-05 07:23 | 48.34547 | 11.77780 | 1472 ft | 26 kts | 83° |
| 2026-05-05 07:23 | 48.34563 | 11.77997 | 1471 ft | 12 kts | 84° |
| 2026-05-05 07:23 | 48.34618 | 11.78073 | 1470 ft | 13 kts | 353° |
| 2026-05-05 07:24 | 48.34720 | 11.78055 | 1468 ft | 15 kts | 354° |
| 2026-05-05 07:24 | 48.34830 | 11.78038 | 1467 ft | 15 kts | 6° |
| 2026-05-05 07:24 | 48.34880 | 11.78147 | 1469 ft | 13 kts | 81° |
| 2026-05-05 07:24 | 48.34933 | 11.78230 | 1470 ft | 11 kts | 1° |
| 2026-05-05 07:25 | 48.34989 | 11.78278 | 1470 ft | 10 kts | 73° |
| 2026-05-05 07:25 | 48.34997 | 11.78360 | 1471 ft | 2 kts | 83° |
| 2026-05-05 07:25 | 48.34998 | 11.78370 | 1471 ft | 0 kts | 83° |
| 2026-05-05 07:25 | 48.34998 | 11.78372 | 1471 ft | 0 kts | 83° |